Time;durP1;ratioP1;P1;durP2;ratioP2;P2;SDS_P1;SDS_P2;PMS_P1;PMS_P2;Temp;Humidity;BMP_temperature;BMP_pressure;BME280_temperature;BME280_humidity;BME280_pressure;Samples;Min_cycle;Max_cycle;Signal;HPM_P1;HPM_P2
2021/08/16 00:00:09;;;;;;;0.40;0.20;;;;;;;20.79;94.86;99604.47;4947794;29;20479;-56
2021/08/16 00:02:36;;;;;;;2.20;1.03;;;;;;;20.64;95.59;99601.16;4935040;29;20795;-56
2021/08/16 00:05:04;;;;;;;0.50;0.50;;;;;;;20.70;95.53;99601.53;4947754;29;20465;-56
2021/08/16 00:07:30;;;;;;;0.40;0.20;;;;;;;20.69;95.79;99597.09;4943693;29;20550;-56
2021/08/16 00:09:57;;;;;;;9.50;1.17;;;;;;;20.83;94.81;99590.59;4941455;28;20455;-56
2021/08/16 00:12:24;;;;;;;0.40;0.20;;;;;;;20.94;95.21;99593.25;4944524;28;21044;-56
2021/08/16 00:14:50;;;;;;;0.40;0.20;;;;;;;20.98;95.28;99596.56;4947540;29;20973;-56
2021/08/16 00:17:17;;;;;;;0.60;0.50;;;;;;;20.82;96.33;99585.28;4944687;29;21028;-56
2021/08/16 00:19:43;;;;;;;0.40;0.20;;;;;;;20.89;97.13;99595.47;4941022;28;20506;-56
2021/08/16 00:22:10;;;;;;;0.50;0.30;;;;;;;21.09;96.27;99592.94;4943724;28;20456;-56
2021/08/16 00:24:37;;;;;;;0.40;0.20;;;;;;;20.96;96.47;99593.97;4951604;29;20515;-56
2021/08/16 00:27:03;;;;;;;0.40;0.20;;;;;;;21.05;96.39;99596.91;4949364;29;20523;-56
2021/08/16 00:29:30;;;;;;;10.73;1.60;;;;;;;21.16;95.65;99594.16;4944920;29;20497;-56
2021/08/16 00:31:56;;;;;;;0.40;0.30;;;;;;;21.09;96.27;99587.53;4947173;28;20451;-56
2021/08/16 00:34:23;;;;;;;4.67;0.60;;;;;;;21.27;95.42;99596.88;4951414;29;20464;-56
2021/08/16 00:36:50;;;;;;;0.50;0.30;;;;;;;21.69;92.97;99599.63;4949318;29;20479;-56
2021/08/16 00:39:17;;;;;;;0.50;0.30;;;;;;;21.68;93.09;99593.34;4945265;28;20483;-56
2021/08/16 00:41:48;;;;;;;0.50;0.30;;;;;;;21.94;91.65;99583.00;4947207;28;20811;-56
2021/08/16 00:44:16;;;;;;;1.57;1.57;;;;;;;21.76;92.61;99593.53;4951159;29;20822;-56
2021/08/16 00:46:43;;;;;;;0.40;0.20;;;;;;;21.68;94.24;99596.06;4950458;29;20454;-56
2021/08/16 00:49:10;;;;;;;0.60;0.50;;;;;;;21.41;95.02;99596.56;4944421;29;20452;-56
2021/08/16 00:51:37;;;;;;;0.50;0.30;;;;;;;21.43;95.75;99593.72;4945411;28;20460;-56
2021/08/16 00:54:08;;;;;;;0.40;0.20;;;;;;;21.53;95.00;99592.81;4950940;29;20527;-56
2021/08/16 00:56:37;;;;;;;0.60;0.30;;;;;;;21.56;94.50;99589.00;4950902;29;20878;-56
2021/08/16 00:59:08;;;;;;;0.60;0.50;;;;;;;21.24;96.40;99600.66;4945155;29;20478;-56
2021/08/16 01:01:35;;;;;;;0.87;0.73;;;;;;;21.14;96.59;99598.84;4943845;28;21099;-56
2021/08/16 01:04:02;;;;;;;2.70;1.17;;;;;;;20.90;98.49;99608.00;4945209;29;20878;-56
2021/08/16 01:06:29;;;;;;;0.63;0.63;;;;;;;21.06;97.46;99604.88;4943942;29;20483;-56
2021/08/16 01:08:56;;;;;;;0.40;0.20;;;;;;;21.00;97.56;99602.69;4950374;29;20487;-56
2021/08/16 01:11:24;;;;;;;0.80;0.60;;;;;;;20.80;98.75;99598.91;4950847;29;20455;-56
2021/08/16 01:13:51;;;;;;;0.40;0.30;;;;;;;20.92;97.77;99607.88;4945385;29;20566;-56
2021/08/16 01:16:19;;;;;;;1.70;1.30;;;;;;;20.81;98.93;99611.44;4944026;28;20452;-56
2021/08/16 01:18:46;;;;;;;3.87;2.20;;;;;;;20.85;98.25;99621.03;4949111;28;20535;-56
2021/08/16 01:21:16;;;;;;;0.40;0.20;;;;;;;20.80;98.40;99620.53;4950768;29;20494;-56
2021/08/16 01:23:44;;;;;;;0.57;0.50;;;;;;;20.65;99.00;99621.78;4946661;29;20487;-56
2021/08/16 01:26:11;;;;;;;0.40;0.20;;;;;;;20.73;98.73;99629.28;4942625;29;20452;-56
2021/08/16 01:28:38;;;;;;;0.50;0.20;;;;;;;20.72;98.37;99628.41;4947722;28;20916;-56
2021/08/16 01:31:07;;;;;;;0.47;0.30;;;;;;;20.46;99.55;99629.66;4950293;29;20464;-56
2021/08/16 01:33:36;;;;;;;0.40;0.30;;;;;;;20.60;99.54;99632.13;4947056;28;20506;-56
2021/08/16 01:36:03;;;;;;;0.50;0.43;;;;;;;20.59;99.02;99630.41;4942690;28;20937;-56
2021/08/16 01:38:33;;;;;;;0.77;0.70;;;;;;;20.48;99.45;99633.94;4946530;28;20479;-56
2021/08/16 01:41:00;;;;;;;0.50;0.40;;;;;;;20.47;99.47;99629.53;4950177;29;20456;-56
2021/08/16 01:43:27;;;;;;;0.40;0.20;;;;;;;20.39;99.73;99635.50;4947998;29;20808;-56
2021/08/16 01:45:54;;;;;;;0.40;0.20;;;;;;;20.21;99.91;99644.22;4942552;29;20459;-56
2021/08/16 01:48:21;;;;;;;0.40;0.20;;;;;;;20.16;100.00;99651.81;4945543;28;20496;-56
2021/08/16 01:50:47;;;;;;;0.40;0.20;;;;;;;20.09;100.00;99646.88;4950167;29;21088;-56
2021/08/16 01:53:14;;;;;;;0.40;0.20;;;;;;;20.07;100.00;99648.00;4948011;29;20526;-56
2021/08/16 01:55:41;;;;;;;0.40;0.20;;;;;;;20.17;100.00;99651.69;4943078;29;20455;-56
2021/08/16 01:58:09;;;;;;;1.83;1.83;;;;;;;20.17;100.00;99659.78;4945883;28;20479;-56
2021/08/16 02:00:37;;;;;;;0.40;0.20;;;;;;;19.97;100.00;99668.56;4950086;29;20459;-56
2021/08/16 02:03:05;;;;;;;0.50;0.47;;;;;;;20.02;100.00;99674.47;4935991;29;20452;-56
2021/08/16 02:05:32;;;;;;;0.40;0.20;;;;;;;19.91;100.00;99669.91;4949785;29;20464;-56
2021/08/16 02:08:00;;;;;;;0.40;0.30;;;;;;;20.06;100.00;99659.75;4949404;29;20526;-56
2021/08/16 02:10:27;;;;;;;0.43;0.27;;;;;;;20.06;100.00;99674.13;4939948;29;20948;-56
2021/08/16 02:12:54;;;;;;;0.40;0.20;;;;;;;20.14;100.00;99657.31;4943387;28;20524;-56
2021/08/16 02:15:21;;;;;;;0.40;0.20;;;;;;;20.16;100.00;99673.41;4948839;29;20876;-56
2021/08/16 02:17:47;;;;;;;1.93;0.83;;;;;;;20.17;99.98;99667.88;4949454;29;20483;-56
2021/08/16 02:20:15;;;;;;;0.40;0.20;;;;;;;20.16;99.92;99670.72;4944577;29;20456;-56
2021/08/16 02:22:42;;;;;;;1.90;0.67;;;;;;;20.41;98.75;99679.47;4942740;28;20452;-56
2021/08/16 02:25:09;;;;;;;0.50;0.30;;;;;;;20.54;97.77;99676.66;4948344;28;20531;-56
2021/08/16 02:27:35;;;;;;;0.50;0.50;;;;;;;20.57;96.72;99679.13;4949345;29;20475;-56
2021/08/16 02:30:03;;;;;;;0.50;0.47;;;;;;;20.68;95.83;99679.09;4944104;29;20483;-56
2021/08/16 02:32:30;;;;;;;0.40;0.20;;;;;;;20.88;94.23;99677.53;4942796;28;20976;-56
2021/08/16 02:34:56;;;;;;;0.50;0.50;;;;;;;20.76;93.90;99681.22;4947940;28;20826;-56
2021/08/16 02:37:23;;;;;;;0.40;0.30;;;;;;;21.04;92.69;99678.97;4948856;29;20546;-56
2021/08/16 02:39:49;;;;;;;0.60;0.43;;;;;;;20.90;92.51;99688.19;4944291;29;20459;-56
2021/08/16 02:42:16;;;;;;;0.40;0.20;;;;;;;20.91;92.43;99689.91;4942818;28;20483;-56
2021/08/16 02:44:43;;;;;;;3.27;1.00;;;;;;;20.94;92.14;99687.81;4947328;29;20830;-56
2021/08/16 02:47:09;;;;;;;0.40;0.30;;;;;;;20.89;92.63;99697.28;4948621;29;20996;-56
2021/08/16 02:49:36;;;;;;;0.50;0.20;;;;;;;20.85;92.52;99704.78;4944567;29;20491;-56
2021/08/16 02:52:03;;;;;;;0.60;0.60;;;;;;;20.90;91.88;99702.56;4942020;28;20515;-56
2021/08/16 02:54:30;;;;;;;0.40;0.30;;;;;;;20.93;90.26;99698.75;4947143;28;20528;-56
2021/08/16 02:56:56;;;;;;;0.40;0.20;;;;;;;20.95;88.27;99705.75;4948677;29;20968;-56
2021/08/16 02:59:23;;;;;;;0.40;0.20;;;;;;;21.24;86.67;99707.91;4944220;29;20932;-56
2021/08/16 03:01:50;;;;;;;0.60;0.50;;;;;;;20.88;85.56;99703.69;4940224;28;20464;-56
2021/08/16 03:04:16;;;;;;;0.47;0.37;;;;;;;20.84;84.68;99703.06;4944700;29;20506;-56
2021/08/16 03:06:43;;;;;;;5.13;1.23;;;;;;;20.91;84.16;99708.84;4941931;28;20452;-56
2021/08/16 03:09:10;;;;;;;0.50;0.30;;;;;;;21.14;82.32;99715.09;4946118;29;20460;-56
2021/08/16 03:11:36;;;;;;;0.40;0.20;;;;;;;21.06;81.81;99721.09;4948634;29;20455;-56
2021/08/16 03:14:03;;;;;;;0.40;0.30;;;;;;;21.00;80.81;99717.06;4944907;29;20499;-56
2021/08/16 03:16:29;;;;;;;0.40;0.30;;;;;;;21.07;78.89;99727.38;4941910;29;20525;-56
2021/08/16 03:18:56;;;;;;;0.40;0.20;;;;;;;21.05;79.28;99740.16;4944751;29;20452;-56
2021/08/16 03:21:23;;;;;;;0.67;0.67;;;;;;;20.81;78.65;99733.03;4948266;29;20466;-56
2021/08/16 03:23:52;;;;;;;0.47;0.30;;;;;;;21.24;76.67;99732.25;4945302;29;20451;-56
2021/08/16 03:26:19;;;;;;;0.40;0.20;;;;;;;21.08;76.10;99743.44;4941970;28;20494;-56
2021/08/16 03:28:45;;;;;;;0.40;0.20;;;;;;;21.14;75.63;99742.13;4943811;29;20880;-56
2021/08/16 03:31:12;;;;;;;70.43;2.77;;;;;;;20.87;75.06;99732.53;4948287;29;20452;-56
2021/08/16 03:33:38;;;;;;;0.40;0.20;;;;;;;20.65;75.62;99737.94;4945503;29;20506;-56
2021/08/16 03:36:05;;;;;;;0.40;0.20;;;;;;;20.96;74.60;99744.44;4941889;28;20798;-56
2021/08/16 03:38:32;;;;;;;0.50;0.50;;;;;;;20.67;74.70;99742.22;4944247;29;20551;-55
2021/08/16 03:40:59;;;;;;;0.40;0.20;;;;;;;20.82;73.69;99753.66;4948504;29;20515;-56
2021/08/16 03:43:25;;;;;;;0.40;0.20;;;;;;;20.54;74.24;99760.38;4945425;29;20451;-56
2021/08/16 03:45:53;;;;;;;1.53;1.47;;;;;;;20.73;73.07;99756.25;4941684;28;20491;-56
2021/08/16 03:48:19;;;;;;;0.40;0.20;;;;;;;20.75;73.29;99755.13;4943094;28;21048;-56
2021/08/16 03:50:46;;;;;;;0.40;0.20;;;;;;;20.86;72.32;99765.09;4948050;29;20492;-56
2021/08/16 03:53:13;;;;;;;0.40;0.20;;;;;;;20.36;73.14;99761.78;4934524;29;20495;-56
2021/08/16 03:55:40;;;;;;;0.40;0.20;;;;;;;20.38;72.69;99763.38;4941826;29;20452;-56
2021/08/16 03:58:07;;;;;;;1.57;1.03;;;;;;;20.36;73.09;99765.34;4942174;28;20476;-56
2021/08/16 04:00:34;;;;;;;0.40;0.30;;;;;;;20.21;73.54;99763.81;4947940;29;20508;-56
2021/08/16 04:03:01;;;;;;;0.40;0.20;;;;;;;20.17;73.37;99775.84;4946589;29;20453;-56
2021/08/16 04:05:28;;;;;;;0.40;0.20;;;;;;;20.11;73.61;99773.59;4940155;29;20518;-56
2021/08/16 04:07:55;;;;;;;0.40;0.20;;;;;;;20.20;73.09;99782.84;4941323;29;20900;-56
2021/08/16 04:10:23;;;;;;;0.40;0.20;;;;;;;20.34;72.66;99778.09;4943792;29;20537;-56
2021/08/16 04:12:50;;;;;;;0.40;0.20;;;;;;;20.13;73.33;99779.72;4942217;28;20478;-56
2021/08/16 04:15:23;;;;;;;0.40;0.20;;;;;;;20.10;73.15;99785.38;4947586;29;20496;-56
2021/08/16 04:17:50;;;;;;;0.40;0.20;;;;;;;20.08;73.30;99781.94;4946909;29;20570;-56
2021/08/16 04:20:18;;;;;;;0.40;0.20;;;;;;;19.99;73.86;99780.78;4941973;29;20835;-56
2021/08/16 04:22:46;;;;;;;0.40;0.27;;;;;;;19.89;74.17;99787.88;4941188;29;20475;-56
2021/08/16 04:25:15;;;;;;;0.63;0.63;;;;;;;20.01;73.37;99791.47;4946405;28;20452;-56
2021/08/16 04:27:42;;;;;;;0.40;0.30;;;;;;;20.19;73.86;99792.78;4947832;29;20472;-56
2021/08/16 04:30:10;;;;;;;0.40;0.20;;;;;;;20.00;73.69;99798.69;4942931;29;20455;-56
2021/08/16 04:32:37;;;;;;;0.40;0.20;;;;;;;20.16;72.35;99811.91;4940316;28;20492;-56
2021/08/16 04:35:05;;;;;;;3.70;0.70;;;;;;;20.05;72.79;99803.75;4947990;28;20491;-56
2021/08/16 04:37:41;;;;;;;0.40;0.20;;;;;;;19.89;73.23;99801.38;4941091;28;21048;-56
2021/08/16 04:40:09;;;;;;;0.50;0.30;;;;;;;19.69;73.68;99813.63;4943603;28;20495;-56
2021/08/16 04:42:36;;;;;;;16.93;1.63;;;;;;;19.54;74.56;99806.63;4944415;29;20523;-56
2021/08/16 04:45:04;;;;;;;0.40;0.20;;;;;;;19.67;74.92;99802.09;4935324;29;20495;-56
2021/08/16 04:47:31;;;;;;;0.50;0.50;;;;;;;19.56;73.44;99802.00;4965192;23;20503;-60
2021/08/16 04:49:57;;;;;;;0.40;0.30;;;;;;;19.63;73.55;99808.69;4965447;28;20943;-60
2021/08/16 04:52:25;;;;;;;34.77;1.53;;;;;;;19.50;73.62;99814.09;4959915;28;20522;-59
2021/08/16 04:54:52;;;;;;;0.40;0.30;;;;;;;19.82;72.43;99811.72;4961300;28;20490;-58
2021/08/16 04:57:36;;;;;;;0.50;0.40;;;;;;;19.78;72.20;99815.66;4966826;28;20542;-60
2021/08/16 05:00:13;;;;;;;0.40;0.20;;;;;;;19.50;73.38;99821.31;4953835;28;20521;-59
2021/08/16 05:02:40;;;;;;;0.93;0.93;;;;;;;19.40;74.20;99817.56;4952642;28;20475;-60
2021/08/16 05:05:13;;;;;;;2.20;1.30;;;;;;;19.57;73.56;99816.34;4952490;29;20567;-60
2021/08/16 05:07:48;;;;;;;0.40;0.30;;;;;;;19.94;72.19;99812.66;4953957;28;20479;-60
2021/08/16 05:10:16;;;;;;;0.40;0.20;;;;;;;20.62;69.30;99808.41;4947311;28;20465;-60
2021/08/16 05:12:44;;;;;;;1.27;1.07;;;;;;;21.13;67.37;99807.97;4950978;28;20463;-60
2021/08/16 05:15:11;;;;;;;1.60;1.50;;;;;;;21.47;65.63;99815.09;4954608;29;20878;-60
2021/08/16 05:17:39;;;;;;;0.40;0.20;;;;;;;21.92;63.35;99806.03;4957093;28;20845;-60
2021/08/16 05:20:08;;;;;;;0.40;0.20;;;;;;;21.87;63.14;99811.81;4956842;28;20455;-60
2021/08/16 05:22:40;;;;;;;0.40;0.20;;;;;;;22.24;62.33;99819.63;4957277;28;20455;-60
2021/08/16 05:25:09;;;;;;;0.57;0.57;;;;;;;22.31;61.05;99818.94;4957125;28;20447;-60
2021/08/16 05:27:36;;;;;;;0.40;0.20;;;;;;;22.45;60.73;99815.91;4956836;28;20907;-60
2021/08/16 05:30:04;;;;;;;0.70;0.60;;;;;;;22.55;60.67;99816.00;4957018;28;20514;-59
2021/08/16 05:32:30;;;;;;;0.40;0.27;;;;;;;22.86;59.76;99813.38;4956685;28;20509;-60
2021/08/16 05:34:57;;;;;;;0.40;0.20;;;;;;;22.52;60.32;99815.41;4957024;28;20490;-60
2021/08/16 05:37:24;;;;;;;1.83;1.27;;;;;;;22.73;59.86;99818.97;4956581;28;20992;-59
2021/08/16 05:39:51;;;;;;;3.90;0.80;;;;;;;22.81;59.25;99818.31;4957011;28;20479;-60
2021/08/16 05:42:17;;;;;;;0.50;0.30;;;;;;;22.58;60.46;99818.44;4954847;28;20945;-60
2021/08/16 05:44:44;;;;;;;0.50;0.40;;;;;;;22.64;60.03;99825.19;4956695;28;20488;-60
2021/08/16 05:47:11;;;;;;;0.93;0.87;;;;;;;22.49;60.41;99829.22;4956251;28;20456;-61
2021/08/16 05:49:37;;;;;;;0.40;0.20;;;;;;;22.36;60.46;99837.53;4956926;28;20447;-60
2021/08/16 05:52:04;;;;;;;0.40;0.20;;;;;;;22.43;60.58;99830.59;4956639;28;20810;-59
2021/08/16 05:54:31;;;;;;;0.40;0.20;;;;;;;22.60;59.60;99832.72;4956378;28;20530;-59
2021/08/16 05:56:57;;;;;;;0.40;0.20;;;;;;;22.91;58.86;99833.69;4956564;28;20455;-60
2021/08/16 05:59:24;;;;;;;0.43;0.20;;;;;;;22.70;60.56;99833.66;4956357;28;20829;-60
2021/08/16 06:01:51;;;;;;;0.40;0.20;;;;;;;22.74;59.88;99826.09;4954814;28;20456;-60
2021/08/16 06:04:17;;;;;;;0.40;0.20;;;;;;;22.65;59.99;99844.03;4956479;28;20452;-60
2021/08/16 06:06:44;;;;;;;0.70;0.50;;;;;;;22.58;61.03;99839.25;4956264;28;20514;-59
2021/08/16 06:09:11;;;;;;;0.60;0.60;;;;;;;22.67;60.47;99839.34;4950660;29;20473;-60
2021/08/16 06:11:37;;;;;;;0.40;0.20;;;;;;;22.42;60.15;99848.69;4952896;29;20494;-60
2021/08/16 06:14:04;;;;;;;0.40;0.20;;;;;;;22.28;61.00;99848.16;4948359;28;20491;-60
2021/08/16 06:16:31;;;;;;;0.40;0.23;;;;;;;22.30;62.17;99857.00;4956118;29;20475;-60
2021/08/16 06:18:57;;;;;;;0.40;0.20;;;;;;;21.97;62.17;99860.66;4956275;28;20478;-60
2021/08/16 06:21:24;;;;;;;0.50;0.40;;;;;;;21.87;62.77;99863.25;4955373;28;20453;-60
2021/08/16 06:23:51;;;;;;;0.50;0.37;;;;;;;21.87;62.94;99861.41;4956383;28;20510;-60
2021/08/16 06:26:18;;;;;;;0.40;0.20;;;;;;;21.62;63.50;99869.78;4955777;28;20451;-59
2021/08/16 06:28:44;;;;;;;0.70;0.70;;;;;;;22.39;61.63;99872.47;4955811;28;20989;-60
2021/08/16 06:31:11;;;;;;;11.53;2.20;;;;;;;21.61;64.16;99867.22;4955923;28;20463;-60
2021/08/16 06:33:41;;;;;;;0.87;0.87;;;;;;;21.45;64.07;99865.75;4955866;28;20878;-59
2021/08/16 06:36:08;;;;;;;0.40;0.20;;;;;;;21.73;63.87;99867.09;4955978;28;20478;-60
2021/08/16 06:38:35;;;;;;;0.40;0.30;;;;;;;21.83;63.24;99872.63;4955826;28;20475;-59
2021/08/16 06:41:02;;;;;;;0.43;0.20;;;;;;;21.71;64.07;99868.19;4955515;28;20533;-59
2021/08/16 06:43:31;;;;;;;5.10;1.57;;;;;;;21.62;63.98;99874.34;4954675;28;20510;-58
2021/08/16 06:45:58;;;;;;;0.40;0.20;;;;;;;21.80;64.12;99873.72;4955595;28;20455;-58
2021/08/16 06:48:25;;;;;;;0.40;0.20;;;;;;;22.05;62.96;99879.81;4955654;28;21007;-59
2021/08/16 06:50:52;;;;;;;0.40;0.20;;;;;;;21.98;63.57;99881.31;4955498;28;20506;-59
2021/08/16 06:53:18;;;;;;;2.20;2.10;;;;;;;22.33;63.03;99881.97;4955367;28;20459;-60
2021/08/16 06:55:47;;;;;;;0.40;0.30;;;;;;;22.44;62.83;99891.91;4955001;28;20530;-60
2021/08/16 06:58:13;;;;;;;1.03;1.03;;;;;;;22.24;63.09;99885.47;4955441;28;20507;-60
2021/08/16 07:00:43;;;;;;;0.50;0.33;;;;;;;22.11;62.69;99891.03;4955347;28;20459;-60
2021/08/16 07:03:10;;;;;;;0.40;0.20;;;;;;;22.09;63.41;99893.03;4952876;29;20462;-60
2021/08/16 07:05:44;;;;;;;0.60;0.60;;;;;;;21.91;63.79;99893.63;4954985;29;21007;-60
2021/08/16 07:08:12;;;;;;;0.40;0.20;;;;;;;21.74;64.11;99886.88;4954707;28;20472;-60
2021/08/16 07:10:39;;;;;;;0.40;0.20;;;;;;;21.85;64.97;99887.72;4945276;28;20467;-60
2021/08/16 07:13:06;;;;;;;0.40;0.20;;;;;;;21.76;64.31;99891.19;4947019;29;20552;-60
2021/08/16 07:15:33;;;;;;;0.40;0.30;;;;;;;21.85;64.41;99890.44;4954904;28;20499;-60
2021/08/16 07:18:00;;;;;;;0.40;0.30;;;;;;;22.12;64.14;99894.59;4954397;28;20475;-60
2021/08/16 07:20:31;;;;;;;0.40;0.20;;;;;;;21.66;64.52;99902.91;4954732;28;20875;-60
2021/08/16 07:22:57;;;;;;;0.40;0.20;;;;;;;21.57;65.76;99902.63;4954352;28;20452;-60
2021/08/16 07:25:24;;;;;;;0.40;0.30;;;;;;;21.73;64.40;99910.38;4954888;28;20447;-60
2021/08/16 07:27:51;;;;;;;0.40;0.20;;;;;;;22.00;63.58;99901.84;4954518;28;20503;-60
2021/08/16 07:30:20;;;;;;;0.40;0.20;;;;;;;21.73;63.99;99901.41;4954524;28;20462;-60
2021/08/16 07:32:47;;;;;;;0.40;0.20;;;;;;;21.74;65.14;99911.25;4953557;28;20921;-60
2021/08/16 07:35:14;;;;;;;0.40;0.20;;;;;;;21.74;65.09;99903.97;4953316;29;20518;-60
2021/08/16 07:37:40;;;;;;;0.70;0.47;;;;;;;21.62;65.13;99898.69;4954403;28;20919;-60
2021/08/16 07:40:08;;;;;;;0.40;0.27;;;;;;;21.54;64.89;99910.16;4954854;28;20522;-60
2021/08/16 07:42:34;;;;;;;0.40;0.20;;;;;;;21.78;64.26;99907.28;4952699;28;20875;-60
2021/08/16 07:45:01;;;;;;;0.40;0.20;;;;;;;21.55;64.46;99904.63;4954685;28;20494;-59
2021/08/16 07:47:28;;;;;;;1.83;1.03;;;;;;;21.55;65.68;99906.47;4954300;28;21019;-60
2021/08/16 07:49:54;;;;;;;0.40;0.20;;;;;;;21.67;65.09;99900.06;4954380;28;20875;-60
2021/08/16 07:52:21;;;;;;;0.40;0.20;;;;;;;21.90;64.96;99898.16;4954216;28;20815;-60
2021/08/16 07:54:48;;;;;;;0.40;0.20;;;;;;;21.92;64.98;99911.56;4954485;28;20569;-60
2021/08/16 07:57:14;;;;;;;0.40;0.20;;;;;;;21.86;65.40;99919.22;4954201;28;20455;-60
2021/08/16 07:59:41;;;;;;;0.40;0.30;;;;;;;21.54;65.59;99921.84;4954385;28;20530;-60
2021/08/16 08:02:08;;;;;;;0.40;0.20;;;;;;;21.73;64.98;99933.88;4952928;28;20443;-60
2021/08/16 08:04:35;;;;;;;0.40;0.20;;;;;;;21.71;66.06;99923.19;4954141;28;20448;-60
2021/08/16 08:07:02;;;;;;;0.40;0.20;;;;;;;21.65;66.54;99931.75;4954295;28;20479;-60
2021/08/16 08:09:31;;;;;;;0.40;0.20;;;;;;;21.45;66.96;99933.38;4945166;28;20472;-60
2021/08/16 08:11:59;;;;;;;1.60;0.70;;;;;;;21.42;67.03;99925.50;4953223;29;21071;-60
2021/08/16 08:14:25;;;;;;;0.40;0.20;;;;;;;21.68;66.86;99938.81;4947524;29;20483;-60
2021/08/16 08:16:52;;;;;;;0.40;0.20;;;;;;;21.72;65.95;99934.84;4954223;28;20460;-60
2021/08/16 08:19:19;;;;;;;0.50;0.30;;;;;;;21.32;67.58;99942.56;4953993;28;20479;-60
2021/08/16 08:21:46;;;;;;;0.40;0.20;;;;;;;21.55;67.26;99945.19;4952912;29;20455;-60
2021/08/16 08:24:12;;;;;;;0.60;0.57;;;;;;;21.61;66.83;99943.81;4954388;28;20479;-61
2021/08/16 08:26:39;;;;;;;1.03;1.03;;;;;;;21.51;67.92;99942.81;4929144;29;20463;-60
2021/08/16 08:29:05;;;;;;;0.40;0.30;;;;;;;21.95;66.38;99941.13;4954019;28;20475;-60
2021/08/16 08:31:32;;;;;;;0.40;0.20;;;;;;;21.53;68.40;99944.47;4953901;28;20455;-60
2021/08/16 08:33:59;;;;;;;0.40;0.20;;;;;;;21.63;68.33;99944.56;4954468;28;20542;-60
2021/08/16 08:36:25;;;;;;;0.40;0.30;;;;;;;21.69;68.01;99945.94;4954202;29;20495;-60
2021/08/16 08:38:52;;;;;;;0.40;0.20;;;;;;;21.54;68.25;99940.75;4953971;28;20479;-60
2021/08/16 08:41:21;;;;;;;0.40;0.20;;;;;;;21.85;67.75;99936.44;4953994;28;20490;-60
2021/08/16 08:43:48;;;;;;;0.50;0.30;;;;;;;21.70;67.95;99944.94;4954118;28;21023;-59
2021/08/16 08:46:18;;;;;;;0.40;0.20;;;;;;;21.44;69.09;99947.03;4957653;28;20450;-60
2021/08/16 08:48:45;;;;;;;0.40;0.30;;;;;;;21.65;69.31;99947.13;4956408;29;20488;-60
2021/08/16 08:51:12;;;;;;;4.23;0.87;;;;;;;21.55;68.50;99934.38;4957826;29;20529;-60
2021/08/16 08:53:39;;;;;;;0.40;0.30;;;;;;;21.89;68.31;99939.75;4957539;28;20459;-60
2021/08/16 08:56:06;;;;;;;0.40;0.20;;;;;;;21.80;68.46;99940.53;4957568;28;20543;-60
2021/08/16 08:58:33;;;;;;;4.00;0.77;;;;;;;21.99;67.98;99945.28;4957351;28;20502;-60
2021/08/16 09:00:59;;;;;;;0.40;0.20;;;;;;;21.89;68.00;99942.47;4956341;29;20459;-60
2021/08/16 09:03:27;;;;;;;0.40;0.20;;;;;;;21.98;68.53;99943.56;4943463;28;20480;-59
2021/08/16 09:05:56;;;;;;;0.40;0.20;;;;;;;21.92;68.67;99941.34;4957391;28;20447;-59
2021/08/16 09:08:28;;;;;;;0.40;0.20;;;;;;;21.79;68.39;99952.31;4956892;28;20537;-60
2021/08/16 09:11:12;;;;;;;0.40;0.20;;;;;;;21.99;67.86;99950.72;4939374;29;20485;-59
2021/08/16 09:13:55;;;;;;;0.40;0.20;;;;;;;22.11;67.68;99942.47;4939566;29;20489;-60
2021/08/16 09:16:25;;;;;;;0.40;0.20;;;;;;;22.12;66.67;99941.50;4957068;28;20530;-60
2021/08/16 09:18:52;;;;;;;0.40;0.20;;;;;;;22.18;67.86;99940.13;4957702;29;20854;-60
2021/08/16 09:21:31;;;;;;;0.40;0.20;;;;;;;21.99;67.77;99942.59;4957016;28;20502;-60
2021/08/16 09:24:00;;;;;;;0.40;0.20;;;;;;;22.49;66.55;99935.75;4957358;28;20458;-60
2021/08/16 09:26:33;;;;;;;0.50;0.40;;;;;;;22.41;67.28;99930.94;4955974;28;20546;-60
2021/08/16 09:29:21;;;;;;;0.40;0.30;;;;;;;22.49;66.99;99937.59;4957009;28;20482;-59
2021/08/16 09:32:03;;;;;;;0.40;0.30;;;;;;;22.34;66.88;99931.56;4956959;28;20512;-60
2021/08/16 09:34:35;;;;;;;0.63;0.57;;;;;;;22.16;67.74;99939.38;4956710;28;20451;-60
2021/08/16 09:37:14;;;;;;;0.60;0.60;;;;;;;22.56;66.45;99936.94;4956909;28;20877;-60
2021/08/16 09:39:43;;;;;;;0.40;0.20;;;;;;;22.51;67.07;99941.03;4956958;28;20474;-60
2021/08/16 09:42:10;;;;;;;0.40;0.30;;;;;;;22.51;66.47;99941.88;4954065;29;20451;-60
2021/08/16 09:44:50;;;;;;;0.40;0.20;;;;;;;22.56;66.23;99936.94;4956730;28;20879;-60
2021/08/16 09:47:17;;;;;;;0.40;0.20;;;;;;;22.37;66.74;99936.75;4956619;28;20919;-60
2021/08/16 09:49:56;;;;;;;0.40;0.30;;;;;;;22.34;66.84;99927.06;4956697;28;20451;-60
2021/08/16 09:52:30;;;;;;;0.40;0.37;;;;;;;22.62;65.86;99935.56;4956525;28;20826;-60
2021/08/16 09:54:57;;;;;;;0.40;0.30;;;;;;;22.92;64.84;99938.41;4955707;28;20499;-60
2021/08/16 09:57:29;;;;;;;0.40;0.20;;;;;;;22.80;65.25;99934.00;4956296;28;20471;-60
2021/08/16 09:59:56;;;;;;;0.40;0.30;;;;;;;23.03;65.31;99932.06;4956380;28;20451;-59
2021/08/16 10:02:26;;;;;;;0.40;0.20;;;;;;;23.13;64.61;99929.41;4932951;29;20444;-60
2021/08/16 10:04:56;;;;;;;0.50;0.30;;;;;;;23.20;65.33;99915.19;4956271;29;20452;-60
2021/08/16 10:07:33;;;;;;;0.40;0.30;;;;;;;23.45;63.48;99926.63;4956150;28;20475;-60
2021/08/16 10:10:01;;;;;;;1.43;0.97;;;;;;;23.25;63.55;99923.78;4946556;28;20546;-60
2021/08/16 10:12:31;;;;;;;0.40;0.20;;;;;;;23.18;63.66;99914.47;4952006;28;20833;-60
2021/08/16 10:15:00;;;;;;;0.50;0.30;;;;;;;23.63;63.32;99920.44;4953289;29;20542;-60
2021/08/16 10:17:37;;;;;;;0.40;0.37;;;;;;;23.53;62.64;99915.94;4955983;28;20530;-60
2021/08/16 10:20:06;;;;;;;0.40;0.23;;;;;;;23.34;62.84;99914.84;4955990;28;20514;-60
2021/08/16 10:22:40;;;;;;;0.40;0.30;;;;;;;23.71;62.17;99925.22;4955889;28;20518;-60
2021/08/16 10:25:18;;;;;;;0.40;0.20;;;;;;;23.87;60.96;99919.25;4930696;29;20454;-60
2021/08/16 10:27:45;;;;;;;0.50;0.40;;;;;;;23.91;60.91;99904.41;4955952;28;20578;-60
2021/08/16 10:30:17;;;;;;;0.40;0.30;;;;;;;23.86;62.39;99912.13;4955873;28;20479;-60
2021/08/16 10:32:44;;;;;;;0.77;0.77;;;;;;;23.69;61.60;99900.03;4939479;28;20461;-60
2021/08/16 10:35:18;;;;;;;0.70;0.70;;;;;;;23.74;61.54;99903.22;4942029;29;20491;-60
2021/08/16 10:37:46;;;;;;;0.40;0.30;;;;;;;23.16;62.26;99900.16;4955718;28;21006;-60
2021/08/16 10:40:18;;;;;;;0.40;0.20;;;;;;;23.14;62.89;99904.00;4954600;29;20459;-60
2021/08/16 10:42:45;;;;;;;0.50;0.30;;;;;;;23.14;61.99;99896.72;4949523;28;20499;-60
2021/08/16 10:45:23;;;;;;;0.40;0.20;;;;;;;23.01;62.19;99896.94;4941697;29;20512;-60
2021/08/16 10:48:02;;;;;;;0.40;0.23;;;;;;;23.08;61.64;99888.28;4957397;28;20495;-56
2021/08/16 10:50:30;;;;;;;1.43;1.43;;;;;;;23.21;62.17;99883.50;4960853;28;20459;-55
2021/08/16 10:53:08;;;;;;;0.40;0.20;;;;;;;23.32;63.13;99887.00;4960396;28;20486;-56
2021/08/16 10:55:37;;;;;;;0.40;0.20;;;;;;;23.19;63.26;99883.66;4960433;28;20498;-56
2021/08/16 10:58:09;;;;;;;0.40;0.30;;;;;;;23.32;63.14;99886.16;4960160;28;20475;-57
2021/08/16 11:00:37;;;;;;;0.40;0.20;;;;;;;23.50;63.06;99889.06;4959822;28;20955;-56
2021/08/16 11:03:07;;;;;;;0.60;0.60;;;;;;;23.66;62.64;99886.75;4959092;28;20451;-56
2021/08/16 11:05:39;;;;;;;0.40;0.20;;;;;;;23.78;62.32;99887.50;4960918;29;20952;-55
2021/08/16 11:08:08;;;;;;;0.83;0.83;;;;;;;23.98;61.00;99888.41;4959818;28;20467;-56
2021/08/16 11:10:41;;;;;;;0.40;0.20;;;;;;;23.70;60.93;99877.31;4950558;28;20459;-56
2021/08/16 11:13:18;;;;;;;0.40;0.30;;;;;;;24.03;60.30;99878.84;4955990;28;20693;-58
2021/08/16 11:15:47;;;;;;;0.40;0.30;;;;;;;24.08;60.23;99865.69;4960224;28;20499;-56
2021/08/16 11:18:19;;;;;;;1.13;0.93;;;;;;;24.19;59.79;99871.03;4959266;28;20475;-55
2021/08/16 11:20:55;;;;;;;0.40;0.20;;;;;;;23.65;60.31;99876.88;4959867;28;20514;-55
2021/08/16 11:23:23;;;;;;;0.40;0.20;;;;;;;23.52;60.77;99868.09;4960812;28;20498;-55
2021/08/16 11:25:55;;;;;;;0.40;0.20;;;;;;;23.90;60.39;99870.09;4960583;28;20443;-56
2021/08/16 11:28:26;;;;;;;0.40;0.20;;;;;;;23.71;61.30;99867.31;4960006;28;20475;-56
2021/08/16 11:31:08;;;;;;;0.40;0.30;;;;;;;23.99;61.13;99854.84;4959046;28;20860;-56
2021/08/16 11:33:36;;;;;;;0.40;0.20;;;;;;;24.15;60.56;99860.59;4959940;28;20457;-55
2021/08/16 11:36:11;;;;;;;0.60;0.60;;;;;;;24.13;60.67;99860.72;4959847;28;21027;-57
2021/08/16 11:38:44;;;;;;;0.70;0.70;;;;;;;24.23;58.73;99858.84;4959265;28;20901;-55